createdAt,value
2023-04-04T00:00:06.351Z,1.92
2023-04-04T00:02:51.715Z,1.80
2023-04-04T00:05:37.060Z,1.55
2023-04-04T00:08:22.478Z,1.33
2023-04-04T00:11:07.993Z,1.60
2023-04-04T00:13:53.434Z,1.83
2023-04-04T00:16:39.150Z,1.67
2023-04-04T00:19:24.930Z,1.95
2023-04-04T00:22:11.277Z,1.58
2023-04-04T00:24:57.179Z,2.00
2023-04-04T00:27:42.546Z,1.75
2023-04-04T00:30:28.922Z,1.80
2023-04-04T00:33:15.239Z,1.80
2023-04-04T00:36:00.600Z,1.88
2023-04-04T00:38:45.977Z,1.80
2023-04-04T00:41:33.272Z,2.03
2023-04-04T00:44:19.040Z,2.20
2023-04-04T00:47:04.697Z,1.90
2023-04-04T00:49:50.904Z,2.10
2023-04-04T00:52:36.318Z,2.17
2023-04-04T00:55:21.826Z,2.10
2023-04-04T00:58:07.325Z,2.30
2023-04-04T01:00:52.692Z,2.20
2023-04-04T01:03:39.589Z,2.28
2023-04-04T01:06:26.513Z,2.30
2023-04-04T01:09:12.522Z,2.05
2023-04-04T01:11:58.436Z,2.20
2023-04-04T01:14:46.153Z,2.40
2023-04-04T01:17:32.441Z,2.20
2023-04-04T01:20:24.694Z,2.20
2023-04-04T01:23:13.658Z,2.33
2023-04-04T01:26:05.760Z,2.42
2023-04-04T01:28:52.872Z,2.60
2023-04-04T01:31:47.438Z,2.80
2023-04-04T01:34:57.983Z,2.50
2023-04-04T01:38:03.406Z,2.22
2023-04-04T01:40:51.273Z,2.65
2023-04-04T01:43:37.799Z,2.20
2023-04-04T01:46:24.013Z,2.78
2023-04-04T01:49:11.113Z,2.60
2023-04-04T01:51:58.201Z,2.78
2023-04-04T01:54:44.508Z,2.50
2023-04-04T01:57:30.889Z,2.65
2023-04-04T02:00:16.528Z,2.72
2023-04-04T02:03:02.760Z,2.50
2023-04-04T02:05:48.737Z,2.88
2023-04-04T02:08:34.566Z,2.80
2023-04-04T02:11:22.877Z,3.00
2023-04-04T02:14:08.767Z,2.92
2023-04-04T02:16:54.245Z,2.80
2023-04-04T02:19:40.662Z,3.22
2023-04-04T02:22:26.081Z,3.00
2023-04-04T02:25:11.446Z,3.22
2023-04-04T02:27:56.848Z,2.95
2023-04-04T02:30:42.478Z,2.63
2023-04-04T02:33:28.597Z,2.67
2023-04-04T02:36:15.989Z,2.80
2023-04-04T02:39:02.420Z,3.00
2023-04-04T02:41:49.418Z,2.90
2023-04-04T02:44:34.833Z,3.17
2023-04-04T02:47:20.731Z,2.75
2023-04-04T02:50:07.200Z,2.95
2023-04-04T02:52:54.826Z,3.13
2023-04-04T02:55:40.021Z,2.90
2023-04-04T02:58:26.050Z,3.15
2023-04-04T03:01:11.587Z,2.72
2023-04-04T03:03:57.644Z,2.67
2023-04-04T03:06:43.311Z,2.83
2023-04-04T03:09:28.651Z,2.60
2023-04-04T03:12:14.706Z,2.72
2023-04-04T03:15:00.050Z,2.40
2023-04-04T03:17:45.623Z,2.85
2023-04-04T03:20:31.461Z,2.72
2023-04-04T03:23:16.821Z,2.85
2023-04-04T03:26:02.581Z,2.90
2023-04-04T03:28:48.250Z,2.85
2023-04-04T03:31:33.623Z,2.63
2023-04-04T03:34:19.515Z,2.80
2023-04-04T03:37:04.926Z,2.58
2023-04-04T03:39:50.543Z,3.00
2023-04-04T03:42:36.369Z,2.60
2023-04-04T03:45:26.300Z,2.58
2023-04-04T03:48:11.814Z,2.40
2023-04-04T03:50:59.083Z,2.30
2023-04-04T03:53:44.332Z,2.25
2023-04-04T03:56:31.887Z,2.20
2023-04-04T04:02:08.929Z,2.30
2023-04-04T04:04:54.222Z,2.20
2023-04-04T04:07:43.337Z,2.00
2023-04-04T04:10:28.712Z,2.25
2023-04-04T04:13:13.981Z,2.03
2023-04-04T04:15:59.631Z,2.05
2023-04-04T04:18:45.201Z,2.17
2023-04-04T04:21:35.150Z,2.15
2023-04-04T04:24:20.922Z,1.88
2023-04-04T04:27:06.967Z,2.00
2023-04-04T04:29:52.957Z,2.22
2023-04-04T04:32:38.421Z,1.92
2023-04-04T04:35:23.642Z,1.77
2023-04-04T04:38:10.708Z,1.98
2023-04-04T04:40:57.298Z,1.77
2023-04-04T04:43:48.318Z,1.73
2023-04-04T04:46:33.703Z,2.10
2023-04-04T04:49:19.724Z,2.03
2023-04-04T04:52:05.027Z,1.88
2023-04-04T04:54:51.715Z,1.80
2023-04-04T04:57:40.306Z,2.00
2023-04-04T05:00:33.066Z,2.20
2023-04-04T05:03:18.703Z,2.30
2023-04-04T05:06:07.160Z,2.17
2023-04-04T05:08:54.054Z,1.85
2023-04-04T05:11:48.641Z,1.90
2023-04-04T05:14:37.873Z,2.03
2023-04-04T05:17:25.263Z,1.77
2023-04-04T05:20:14.910Z,2.00
2023-04-04T05:23:02.587Z,1.58
2023-04-04T05:25:54.409Z,2.05
2023-04-04T05:28:41.402Z,1.60
2023-04-04T05:31:27.445Z,1.70
2023-04-04T05:34:13.862Z,1.60
2023-04-04T05:36:58.960Z,1.73
2023-04-04T05:39:44.372Z,1.80
2023-04-04T05:42:29.917Z,1.83
2023-04-04T05:45:17.421Z,2.25
2023-04-04T05:48:03.058Z,2.17
2023-04-04T05:50:53.274Z,2.10
2023-04-04T05:53:47.785Z,2.30
2023-04-04T05:56:37.858Z,2.05
2023-04-04T05:59:28.591Z,2.10
2023-04-04T06:02:18.735Z,2.38
2023-04-04T06:05:12.351Z,2.50
2023-04-04T06:07:58.597Z,2.30
2023-04-04T06:10:43.674Z,2.85
2023-04-04T06:13:29.303Z,2.42
2023-04-04T06:16:21.986Z,2.40
2023-04-04T06:19:09.859Z,2.70
2023-04-04T06:21:55.405Z,2.45
2023-04-04T06:24:41.453Z,3.03
2023-04-04T06:27:27.110Z,2.53
2023-04-04T06:30:14.468Z,2.63
2023-04-04T06:33:00.859Z,2.08
2023-04-04T06:35:47.595Z,2.10
2023-04-04T06:38:34.089Z,2.10
2023-04-04T06:41:23.069Z,2.35
2023-04-04T06:44:10.771Z,2.10
2023-04-04T06:46:57.163Z,2.20
2023-04-04T06:49:43.269Z,2.20
2023-04-04T06:52:29.254Z,2.03
2023-04-04T06:55:14.809Z,1.98
2023-04-04T06:58:00.231Z,2.00
2023-04-04T07:00:46.135Z,1.63
2023-04-04T07:03:32.191Z,1.90
2023-04-04T07:06:18.558Z,1.90
2023-04-04T07:09:05.809Z,1.83
2023-04-04T07:11:52.198Z,1.90
2023-04-04T07:14:37.885Z,1.80
2023-04-04T07:17:25.205Z,2.00
2023-04-04T07:20:11.390Z,2.10
2023-04-04T07:22:56.683Z,1.92
2023-04-04T07:25:43.865Z,2.20
2023-04-04T07:28:29.624Z,2.08
2023-04-04T07:31:15.037Z,1.92
2023-04-04T07:34:00.620Z,2.17
2023-04-04T07:36:46.749Z,1.90
2023-04-04T07:39:31.971Z,1.90
2023-04-04T07:42:22.972Z,1.63
2023-04-04T07:45:08.654Z,1.73
2023-04-04T07:47:54.586Z,1.70
2023-04-04T07:50:40.330Z,1.60
2023-04-04T07:53:26.256Z,1.60
2023-04-04T07:56:11.430Z,1.85
2023-04-04T07:58:56.982Z,1.70
2023-04-04T08:01:44.120Z,1.42
2023-04-04T08:04:31.321Z,1.50
2023-04-04T08:07:16.893Z,1.77
2023-04-04T08:10:02.369Z,1.60
2023-04-04T08:12:48.845Z,1.20
2023-04-04T08:15:34.320Z,1.30
2023-04-04T08:18:19.774Z,1.30
2023-04-04T08:21:05.951Z,1.30
2023-04-04T08:23:51.411Z,1.25
2023-04-04T08:26:36.926Z,1.10
2023-04-04T08:29:22.431Z,1.25
2023-04-04T08:32:07.817Z,1.10
2023-04-04T08:34:53.367Z,0.90
2023-04-04T08:37:39.813Z,0.88
2023-04-04T08:40:25.401Z,1.10
2023-04-04T08:43:12.623Z,1.02
2023-04-04T08:45:59.172Z,1.20
2023-04-04T08:48:45.925Z,1.23
2023-04-04T08:51:33.539Z,1.58
2023-04-04T08:54:20.630Z,1.60
2023-04-04T08:57:06.954Z,1.60
2023-04-04T08:59:52.294Z,1.63
2023-04-04T09:03:17.807Z,1.63
2023-04-04T09:06:04.815Z,2.10
2023-04-04T09:08:53.820Z,1.52
2023-04-04T09:11:40.068Z,1.40
2023-04-04T09:14:26.078Z,1.33
2023-04-04T09:17:11.462Z,1.30
2023-04-04T09:19:57.640Z,1.63
2023-04-04T09:22:46.158Z,1.52
2023-04-04T09:25:31.696Z,1.40
2023-04-04T09:28:18.050Z,1.60
2023-04-04T09:31:06.919Z,1.45
2023-04-04T09:33:52.427Z,1.33
2023-04-04T09:36:39.305Z,1.55
2023-04-04T09:39:25.076Z,1.10
2023-04-04T09:42:12.201Z,1.15
2023-04-04T09:44:57.918Z,1.00
2023-04-04T09:47:43.375Z,1.13
2023-04-04T09:50:30.375Z,0.80
2023-04-04T09:53:18.946Z,1.27
2023-04-04T09:56:05.630Z,1.20
2023-04-04T10:01:39.865Z,1.10
2023-04-04T10:04:27.233Z,1.10
2023-04-04T10:07:16.262Z,1.02
2023-04-04T10:10:04.624Z,1.00
2023-04-04T10:12:52.787Z,1.40
2023-04-04T10:15:38.429Z,1.40
2023-04-04T10:18:42.733Z,2.03
2023-04-04T10:21:28.112Z,1.83
2023-04-04T10:24:14.195Z,1.50
2023-04-04T10:26:59.922Z,2.10
2023-04-04T10:29:45.538Z,1.60
2023-04-04T10:32:45.034Z,1.33
2023-04-04T10:35:32.444Z,1.58
2023-04-04T10:38:23.173Z,1.52
2023-04-04T10:41:10.836Z,1.48
2023-04-04T10:44:00.558Z,1.80
2023-04-04T10:46:48.238Z,1.73
2023-04-04T10:49:34.732Z,1.48
2023-04-04T10:52:22.762Z,1.90
2023-04-04T10:55:11.304Z,1.50
2023-04-04T10:57:56.965Z,2.05
2023-04-04T11:00:54.890Z,1.73
2023-04-04T11:04:20.701Z,2.17
2023-04-04T11:07:09.489Z,1.77
2023-04-04T11:09:56.885Z,2.03
2023-04-04T11:12:45.673Z,1.70
2023-04-04T11:15:45.735Z,1.80
2023-04-04T11:18:43.282Z,2.10
2023-04-04T11:21:32.460Z,2.00
2023-04-04T11:24:17.655Z,2.03
2023-04-04T11:27:07.636Z,2.00
2023-04-04T11:29:53.791Z,1.88
2023-04-04T11:32:56.069Z,1.95
2023-04-04T11:35:50.594Z,1.90
2023-04-04T11:38:39.505Z,2.22
2023-04-04T11:41:44.994Z,2.10
2023-04-04T11:44:34.108Z,2.63
2023-04-04T11:47:23.834Z,2.17
2023-04-04T11:50:12.307Z,2.30
2023-04-04T11:52:58.069Z,2.03
2023-04-04T11:55:47.004Z,1.77
2023-04-04T11:58:35.430Z,2.08
2023-04-04T12:01:21.335Z,2.00
2023-04-04T12:04:06.542Z,1.67
2023-04-04T12:06:54.305Z,1.85
2023-04-04T12:09:40.577Z,1.75
2023-04-04T12:12:27.554Z,1.80
2023-04-04T12:15:17.895Z,2.03
2023-04-04T12:18:07.646Z,2.35
2023-04-04T12:20:53.473Z,1.90
2023-04-04T12:23:38.787Z,1.95
2023-04-04T12:26:29.763Z,1.80
2023-04-04T12:29:17.209Z,1.95
2023-04-04T12:32:03.933Z,1.80
2023-04-04T12:34:50.793Z,2.15
2023-04-04T12:37:36.899Z,2.75
2023-04-04T12:40:22.798Z,2.45
2023-04-04T12:43:09.224Z,2.22
2023-04-04T12:45:57.610Z,2.30
2023-04-04T12:48:43.397Z,2.60
2023-04-04T12:51:35.657Z,2.25
2023-04-04T12:54:29.226Z,2.00
2023-04-04T12:57:23.980Z,2.53
2023-04-04T13:00:09.883Z,2.20
2023-04-04T13:02:55.539Z,2.10
2023-04-04T13:05:43.045Z,2.55
2023-04-04T13:08:30.078Z,2.35
2023-04-04T13:11:15.978Z,2.33
2023-04-04T13:14:03.125Z,2.50
2023-04-04T13:17:03.207Z,2.20
2023-04-04T13:19:48.655Z,2.05
2023-04-04T13:22:35.728Z,1.90
2023-04-04T13:25:21.303Z,2.40
2023-04-04T13:28:06.921Z,2.90
2023-04-04T13:30:52.421Z,2.70
2023-04-04T13:33:37.936Z,2.15
2023-04-04T13:36:23.357Z,2.45
2023-04-04T13:39:08.803Z,2.45
2023-04-04T13:41:54.510Z,2.95
2023-04-04T13:44:40.039Z,2.88
2023-04-04T13:47:27.437Z,2.50
2023-04-04T13:50:13.226Z,2.22
2023-04-04T13:52:58.975Z,1.80
2023-04-04T13:56:01.540Z,2.38
2023-04-04T13:58:50.837Z,2.50
2023-04-04T14:01:36.451Z,2.10
2023-04-04T14:04:24.142Z,2.22
2023-04-04T14:07:09.916Z,2.50
2023-04-04T14:09:55.435Z,2.47
2023-04-04T14:12:41.125Z,2.38
2023-04-04T14:15:26.630Z,2.28
2023-04-04T14:18:12.496Z,2.20
2023-04-04T14:20:57.942Z,2.05
2023-04-04T14:23:43.312Z,2.50
2023-04-04T14:26:28.612Z,2.35
2023-04-04T14:29:14.027Z,2.22
2023-04-04T14:31:59.469Z,2.22
2023-04-04T14:34:45.046Z,2.38
2023-04-04T14:37:30.570Z,2.20
2023-04-04T14:40:16.527Z,1.70
2023-04-04T14:43:02.388Z,1.77
2023-04-04T14:45:47.461Z,1.75
2023-04-04T14:48:33.286Z,1.73
2023-04-04T14:51:19.850Z,2.50
2023-04-04T14:54:05.602Z,2.70
2023-04-04T14:56:50.806Z,3.13
2023-04-04T14:59:36.654Z,3.30
2023-04-04T15:02:22.107Z,3.00
2023-04-04T15:05:07.581Z,2.92
2023-04-04T15:07:52.797Z,3.72
2023-04-04T15:10:38.075Z,3.38
2023-04-04T15:13:23.404Z,2.65
2023-04-04T15:16:09.026Z,2.60
2023-04-04T15:18:54.317Z,2.42
2023-04-04T15:21:39.854Z,2.45
2023-04-04T15:24:25.518Z,2.30
2023-04-04T15:27:10.868Z,2.60
2023-04-04T15:29:56.291Z,2.75
2023-04-04T15:32:41.799Z,2.97
2023-04-04T15:35:27.156Z,2.60
2023-04-04T15:38:12.503Z,3.33
2023-04-04T15:40:58.151Z,2.95
2023-04-04T15:43:43.442Z,3.00
2023-04-04T15:46:28.732Z,3.05
2023-04-04T15:49:14.568Z,2.63
2023-04-04T15:51:59.613Z,3.17
2023-04-04T15:54:45.337Z,3.53
2023-04-04T15:57:30.460Z,3.05
2023-04-04T16:00:16.944Z,3.25
2023-04-04T16:03:02.515Z,2.75
2023-04-04T16:05:48.465Z,3.10
2023-04-04T16:08:33.958Z,3.03
2023-04-04T16:11:19.583Z,3.20
2023-04-04T16:14:06.006Z,2.97
2023-04-04T16:16:51.510Z,3.30
2023-04-04T16:19:36.995Z,2.92
2023-04-04T16:22:22.315Z,3.30
2023-04-04T16:25:08.957Z,3.28
2023-04-04T16:27:54.420Z,3.35
2023-04-04T16:30:40.122Z,3.50
2023-04-04T16:33:26.292Z,3.47
2023-04-04T16:36:11.885Z,3.38
2023-04-04T16:38:59.285Z,3.00
2023-04-04T16:41:44.834Z,4.00
2023-04-04T16:44:30.232Z,3.70
2023-04-04T16:47:15.849Z,3.38
2023-04-04T16:50:01.349Z,3.70
2023-04-04T16:52:46.826Z,3.17
2023-04-04T16:55:32.299Z,3.42
2023-04-04T16:58:18.065Z,3.25
2023-04-04T17:01:03.745Z,3.80
2023-04-04T17:03:49.389Z,3.53
2023-04-04T17:06:34.960Z,3.35
2023-04-04T17:09:20.023Z,3.85
2023-04-04T17:12:05.802Z,3.53
2023-04-04T17:14:52.430Z,3.88
2023-04-04T17:17:38.116Z,3.38
2023-04-04T17:20:23.905Z,3.20
2023-04-04T17:23:10.129Z,4.07
2023-04-04T17:25:55.870Z,4.18
2023-04-04T17:28:41.999Z,3.75
2023-04-04T17:31:27.354Z,4.50
2023-04-04T17:34:13.049Z,4.13
2023-04-04T17:36:58.491Z,4.45
2023-04-04T17:39:45.511Z,3.97
2023-04-04T17:42:31.133Z,3.78
2023-04-04T17:45:16.676Z,3.92
2023-04-04T17:48:01.758Z,4.90
2023-04-04T17:50:49.229Z,4.40
2023-04-04T17:53:34.797Z,4.45
2023-04-04T17:56:20.338Z,3.35
2023-04-04T17:59:06.176Z,3.60
2023-04-04T18:01:51.816Z,3.70
2023-04-04T18:04:40.497Z,3.47
2023-04-04T18:07:26.358Z,3.42
2023-04-04T18:10:11.450Z,4.85
2023-04-04T18:12:57.080Z,4.57
2023-04-04T18:15:43.768Z,4.60
2023-04-04T18:18:29.800Z,5.93
2023-04-04T18:21:15.383Z,5.10
2023-04-04T18:24:00.810Z,4.22
2023-04-04T18:26:46.013Z,4.20
2023-04-04T18:29:32.694Z,4.07
2023-04-04T18:32:18.370Z,4.25
2023-04-04T18:35:04.216Z,4.65
2023-04-04T18:37:49.922Z,4.28
2023-04-04T18:40:35.846Z,4.47
2023-04-04T18:43:21.762Z,4.25
2023-04-04T18:46:07.969Z,4.90
2023-04-04T18:48:53.254Z,4.03
2023-04-04T18:51:38.678Z,4.35
2023-04-04T18:54:24.462Z,4.55
2023-04-04T18:57:10.121Z,4.20
2023-04-04T18:59:55.507Z,4.82
2023-04-04T19:02:42.576Z,5.00
2023-04-04T19:05:33.690Z,4.82
2023-04-04T19:08:22.159Z,4.47
2023-04-04T19:11:09.046Z,5.13
2023-04-04T19:13:54.672Z,4.93
2023-04-04T19:16:41.819Z,4.93
2023-04-04T19:19:27.226Z,5.15
2023-04-04T19:22:12.668Z,5.22
2023-04-04T19:24:58.405Z,5.35
2023-04-04T19:27:43.825Z,4.95
2023-04-04T19:30:38.470Z,6.03
2023-04-04T19:33:25.671Z,5.43
2023-04-04T19:36:11.779Z,5.57
2023-04-04T19:38:57.439Z,5.68
2023-04-04T19:41:43.038Z,5.97
2023-04-04T19:44:28.559Z,5.93
2023-04-04T19:47:20.225Z,5.78
2023-04-04T19:50:07.732Z,5.57
2023-04-04T19:52:53.453Z,5.53
2023-04-04T19:55:40.155Z,5.68
2023-04-04T19:58:25.815Z,5.38
2023-04-04T20:01:13.364Z,5.28
2023-04-04T20:04:09.800Z,5.47
2023-04-04T20:06:55.242Z,6.35
2023-04-04T20:09:41.913Z,5.97
2023-04-04T20:12:28.341Z,5.88
2023-04-04T20:15:34.959Z,5.90
2023-04-04T20:18:23.974Z,5.78
2023-04-04T20:21:10.645Z,6.28
2023-04-04T20:23:58.543Z,4.80
2023-04-04T20:26:59.675Z,5.90
2023-04-04T20:29:44.988Z,6.25
2023-04-04T20:32:31.022Z,5.93
2023-04-04T20:35:27.742Z,6.18
2023-04-04T20:38:21.745Z,5.28
2023-04-04T20:41:17.877Z,6.05
2023-04-04T20:44:05.276Z,5.45
2023-04-04T20:46:50.710Z,5.72
2023-04-04T20:49:36.441Z,5.95
2023-04-04T20:52:23.328Z,5.22
2023-04-04T20:55:09.102Z,5.30
2023-04-04T20:57:58.989Z,4.85
2023-04-04T21:00:44.437Z,5.20
2023-04-04T21:03:33.763Z,6.13
2023-04-04T21:06:21.167Z,4.40
2023-04-04T21:09:07.979Z,4.88
2023-04-04T21:11:53.664Z,4.00
2023-04-04T21:14:39.612Z,4.50
2023-04-04T21:17:24.738Z,4.30
2023-04-04T21:20:16.179Z,4.22
2023-04-04T21:23:01.461Z,4.25
2023-04-04T21:25:46.905Z,4.38
2023-04-04T21:28:43.599Z,4.43
2023-04-04T21:31:36.218Z,4.00
2023-04-04T21:37:11.549Z,3.97
2023-04-04T21:39:58.698Z,3.90
2023-04-04T21:42:44.246Z,4.15
2023-04-04T21:45:29.386Z,4.38
2023-04-04T21:48:14.983Z,4.00
2023-04-04T21:51:00.480Z,3.88
2023-04-04T21:53:46.385Z,3.38
2023-04-04T21:56:31.867Z,3.88
2023-04-04T21:59:17.295Z,3.75
2023-04-04T22:02:02.834Z,3.88
2023-04-04T22:04:48.295Z,3.35
2023-04-04T22:07:33.738Z,3.65
2023-04-04T22:10:22.605Z,3.65
2023-04-04T22:13:08.750Z,3.70
2023-04-04T22:15:54.043Z,3.70
2023-04-04T22:18:42.898Z,3.28
2023-04-04T22:21:28.342Z,3.60
2023-04-04T22:24:13.896Z,3.75
2023-04-04T22:26:59.255Z,3.67
2023-04-04T22:29:44.613Z,3.72
2023-04-04T22:32:33.172Z,3.35
2023-04-04T22:35:18.599Z,4.07
2023-04-04T22:38:04.636Z,3.10
2023-04-04T22:40:50.324Z,3.65
2023-04-04T22:43:36.857Z,3.78
2023-04-04T22:46:22.432Z,3.97
2023-04-04T22:49:08.618Z,3.80
2023-04-04T22:51:55.460Z,3.30
2023-04-04T22:54:42.421Z,3.53
2023-04-04T22:57:27.439Z,3.38
2023-04-04T23:00:14.467Z,4.50
2023-04-04T23:03:02.164Z,3.72
2023-04-04T23:05:47.315Z,4.05
2023-04-04T23:08:32.946Z,3.75
2023-04-04T23:11:18.345Z,3.80
2023-04-04T23:14:09.053Z,3.78
2023-04-04T23:16:56.711Z,3.92
2023-04-04T23:19:42.191Z,3.70
2023-04-04T23:22:28.998Z,4.35
2023-04-04T23:25:14.254Z,3.55
2023-04-04T23:27:59.754Z,4.55
2023-04-04T23:30:45.617Z,3.90
2023-04-04T23:33:30.746Z,4.10
2023-04-04T23:36:16.211Z,3.90
2023-04-04T23:39:01.581Z,4.13
2023-04-04T23:41:47.228Z,4.45
2023-04-04T23:44:32.518Z,4.38
2023-04-04T23:47:18.330Z,4.22
2023-04-04T23:50:03.759Z,4.28
2023-04-04T23:52:49.066Z,4.38
2023-04-04T23:55:34.516Z,4.18
2023-04-04T23:58:20.124Z,4.20
